sensor_id;sensor_type;location;lat;lon;timestamp;temperature;humidity
21928;DHT22;11128;51.096;17.190;2024-01-11T00:04:24;-9.40;99.90
21928;DHT22;11128;51.096;17.190;2024-01-11T00:09:26;-9.70;99.90
21928;DHT22;11128;51.096;17.190;2024-01-11T00:14:27;-9.60;99.90
21928;DHT22;11128;51.096;17.190;2024-01-11T00:19:29;-9.20;1.00
21928;DHT22;11128;51.096;17.190;2024-01-11T00:24:30;-9.20;1.00
21928;DHT22;11128;51.096;17.190;2024-01-11T00:29:31;-9.10;1.00
21928;DHT22;11128;51.096;17.190;2024-01-11T00:34:32;-9.10;1.00
21928;DHT22;11128;51.096;17.190;2024-01-11T00:44:39;-9.00;1.00
21928;DHT22;11128;51.096;17.190;2024-01-11T00:49:41;-8.70;1.00
21928;DHT22;11128;51.096;17.190;2024-01-11T00:54:43;-8.70;99.90
21928;DHT22;11128;51.096;17.190;2024-01-11T01:04:49;-8.70;99.90
21928;DHT22;11128;51.096;17.190;2024-01-11T01:09:51;-9.00;99.90
21928;DHT22;11128;51.096;17.190;2024-01-11T01:14:52;-9.10;99.90
21928;DHT22;11128;51.096;17.190;2024-01-11T01:19:53;-9.40;99.90
21928;DHT22;11128;51.096;17.190;2024-01-11T01:24:55;-9.40;99.90
21928;DHT22;11128;51.096;17.190;2024-01-11T01:29:56;-9.30;99.90
21928;DHT22;11128;51.096;17.190;2024-01-11T01:40:03;-9.30;1.00
21928;DHT22;11128;51.096;17.190;2024-01-11T01:45:04;-9.10;1.00
21928;DHT22;11128;51.096;17.190;2024-01-11T01:50:06;-9.10;1.00
21928;DHT22;11128;51.096;17.190;2024-01-11T01:55:10;-9.30;1.00
21928;DHT22;11128;51.096;17.190;2024-01-11T02:00:12;-9.20;99.90
21928;DHT22;11128;51.096;17.190;2024-01-11T02:15:24;-9.30;1.00
21928;DHT22;11128;51.096;17.190;2024-01-11T02:20:26;-9.30;99.90
21928;DHT22;11128;51.096;17.190;2024-01-11T02:25:27;-9.60;99.90
21928;DHT22;11128;51.096;17.190;2024-01-11T02:30:28;-9.70;99.90
21928;DHT22;11128;51.096;17.190;2024-01-11T02:35:29;-9.70;99.90
21928;DHT22;11128;51.096;17.190;2024-01-11T02:40:30;-9.20;1.00
21928;DHT22;11128;51.096;17.190;2024-01-11T02:45:31;-9.50;1.00
21928;DHT22;11128;51.096;17.190;2024-01-11T02:50:32;-9.40;1.00
21928;DHT22;11128;51.096;17.190;2024-01-11T02:55:33;-9.50;1.00
21928;DHT22;11128;51.096;17.190;2024-01-11T03:00:34;-9.00;1.00
21928;DHT22;11128;51.096;17.190;2024-01-11T03:15:45;-8.90;1.00
21928;DHT22;11128;51.096;17.190;2024-01-11T03:20:46;-8.80;1.00
21928;DHT22;11128;51.096;17.190;2024-01-11T03:25:47;-9.00;1.00
21928;DHT22;11128;51.096;17.190;2024-01-11T03:35:53;-8.70;1.00
21928;DHT22;11128;51.096;17.190;2024-01-11T03:40:54;-8.90;1.00
21928;DHT22;11128;51.096;17.190;2024-01-11T03:51:00;-8.90;1.00
21928;DHT22;11128;51.096;17.190;2024-01-11T04:06:23;-9.70;99.90
21928;DHT22;11128;51.096;17.190;2024-01-11T04:11:28;-9.50;1.00
21928;DHT22;11128;51.096;17.190;2024-01-11T04:16:29;-9.40;99.90
21928;DHT22;11128;51.096;17.190;2024-01-11T04:26:35;-9.60;99.90
21928;DHT22;11128;51.096;17.190;2024-01-11T04:41:46;-9.70;1.00
21928;DHT22;11128;51.096;17.190;2024-01-11T04:51:52;-9.40;1.00
21928;DHT22;11128;51.096;17.190;2024-01-11T04:56:53;-9.50;1.00
21928;DHT22;11128;51.096;17.190;2024-01-11T05:06:59;-9.20;1.00
21928;DHT22;11128;51.096;17.190;2024-01-11T05:12:00;-9.20;1.00
21928;DHT22;11128;51.096;17.190;2024-01-11T05:17:01;-8.90;1.00
21928;DHT22;11128;51.096;17.190;2024-01-11T05:22:03;-8.80;1.00
21928;DHT22;11128;51.096;17.190;2024-01-11T05:27:04;-8.40;1.00
21928;DHT22;11128;51.096;17.190;2024-01-11T05:32:05;-8.40;1.00
21928;DHT22;11128;51.096;17.190;2024-01-11T05:37:07;-8.40;1.00
21928;DHT22;11128;51.096;17.190;2024-01-11T05:42:08;-8.20;1.00
21928;DHT22;11128;51.096;17.190;2024-01-11T05:47:09;-8.20;1.00
21928;DHT22;11128;51.096;17.190;2024-01-11T05:52:10;-8.00;99.90
21928;DHT22;11128;51.096;17.190;2024-01-11T05:57:11;-7.80;1.00
21928;DHT22;11128;51.096;17.190;2024-01-11T06:02:13;-7.70;1.00
21928;DHT22;11128;51.096;17.190;2024-01-11T06:07:14;-7.70;1.00
21928;DHT22;11128;51.096;17.190;2024-01-11T06:12:15;-7.60;1.00
21928;DHT22;11128;51.096;17.190;2024-01-11T06:17:16;-7.40;1.00
21928;DHT22;11128;51.096;17.190;2024-01-11T06:22:17;-7.40;1.00
21928;DHT22;11128;51.096;17.190;2024-01-11T06:27:19;-7.20;1.00
21928;DHT22;11128;51.096;17.190;2024-01-11T06:32:20;-6.90;1.00
21928;DHT22;11128;51.096;17.190;2024-01-11T06:37:21;-6.70;1.00
21928;DHT22;11128;51.096;17.190;2024-01-11T06:42:23;-6.60;99.90
21928;DHT22;11128;51.096;17.190;2024-01-11T06:47:24;-6.70;99.90
21928;DHT22;11128;51.096;17.190;2024-01-11T06:52:25;-5.20;99.90
21928;DHT22;11128;51.096;17.190;2024-01-11T07:02:31;-6.50;8.60
21928;DHT22;11128;51.096;17.190;2024-01-11T07:17:43;-6.20;1.00
21928;DHT22;11128;51.096;17.190;2024-01-11T07:22:44;-5.90;1.00
21928;DHT22;11128;51.096;17.190;2024-01-11T07:27:45;-6.00;1.00
21928;DHT22;11128;51.096;17.190;2024-01-11T07:37:51;-5.80;1.00
21928;DHT22;11128;51.096;17.190;2024-01-11T07:42:53;-5.50;1.00
21928;DHT22;11128;51.096;17.190;2024-01-11T07:47:54;-5.40;1.00
21928;DHT22;11128;51.096;17.190;2024-01-11T07:52:55;-5.50;1.00
21928;DHT22;11128;51.096;17.190;2024-01-11T07:57:57;-5.60;1.00
21928;DHT22;11128;51.096;17.190;2024-01-11T08:02:58;-5.20;1.00
21928;DHT22;11128;51.096;17.190;2024-01-11T08:07:59;-5.20;1.00
21928;DHT22;11128;51.096;17.190;2024-01-11T08:13:03;-4.90;1.00
21928;DHT22;11128;51.096;17.190;2024-01-11T08:18:04;-4.70;1.00
21928;DHT22;11128;51.096;17.190;2024-01-11T08:23:06;-4.60;1.00
21928;DHT22;11128;51.096;17.190;2024-01-11T08:28:07;-4.30;1.00
21928;DHT22;11128;51.096;17.190;2024-01-11T08:33:08;-3.80;1.00
21928;DHT22;11128;51.096;17.190;2024-01-11T08:38:10;-4.20;1.00
21928;DHT22;11128;51.096;17.190;2024-01-11T08:43:11;-3.80;1.00
21928;DHT22;11128;51.096;17.190;2024-01-11T08:48:13;-3.60;1.00
21928;DHT22;11128;51.096;17.190;2024-01-11T08:53:15;-3.70;99.90
21928;DHT22;11128;51.096;17.190;2024-01-11T08:58:16;-3.70;1.00
21928;DHT22;11128;51.096;17.190;2024-01-11T09:03:18;-3.50;1.00
21928;DHT22;11128;51.096;17.190;2024-01-11T09:08:19;-3.10;99.90
21928;DHT22;11128;51.096;17.190;2024-01-11T09:13:21;-3.00;99.90
21928;DHT22;11128;51.096;17.190;2024-01-11T09:18:22;-3.10;92.70
21928;DHT22;11128;51.096;17.190;2024-01-11T09:23:24;-2.90;96.60
21928;DHT22;11128;51.096;17.190;2024-01-11T09:28:25;-2.80;93.30
21928;DHT22;11128;51.096;17.190;2024-01-11T09:33:26;-2.60;91.20
21928;DHT22;11128;51.096;17.190;2024-01-11T09:38:28;-2.50;59.90
21928;DHT22;11128;51.096;17.190;2024-01-11T09:43:29;-2.40;32.50
21928;DHT22;11128;51.096;17.190;2024-01-11T09:48:35;-2.40;17.40
21928;DHT22;11128;51.096;17.190;2024-01-11T09:53:37;-2.40;9.20
21928;DHT22;11128;51.096;17.190;2024-01-11T09:58:44;-2.30;1.00
21928;DHT22;11128;51.096;17.190;2024-01-11T10:03:46;-2.30;1.00
21928;DHT22;11128;51.096;17.190;2024-01-11T10:08:48;-1.00;1.00
21928;DHT22;11128;51.096;17.190;2024-01-11T10:13:57;-2.20;1.00
21928;DHT22;11128;51.096;17.190;2024-01-11T10:18:59;-1.20;1.00
21928;DHT22;11128;51.096;17.190;2024-01-11T10:24:00;-2.00;1.00
21928;DHT22;11128;51.096;17.190;2024-01-11T10:29:05;-0.90;1.00
21928;DHT22;11128;51.096;17.190;2024-01-11T10:34:11;-1.90;1.00
21928;DHT22;11128;51.096;17.190;2024-01-11T10:39:14;-1.80;1.00
21928;DHT22;11128;51.096;17.190;2024-01-11T10:44:19;-1.80;1.00
21928;DHT22;11128;51.096;17.190;2024-01-11T10:49:23;-1.70;1.00
21928;DHT22;11128;51.096;17.190;2024-01-11T10:54:27;-1.60;1.00
21928;DHT22;11128;51.096;17.190;2024-01-11T10:59:29;-1.60;1.00
21928;DHT22;11128;51.096;17.190;2024-01-11T11:04:33;-1.50;1.00
21928;DHT22;11128;51.096;17.190;2024-01-11T11:09:37;-1.40;1.00
21928;DHT22;11128;51.096;17.190;2024-01-11T11:14:40;-1.40;1.00
21928;DHT22;11128;51.096;17.190;2024-01-11T11:19:42;-1.30;1.00
21928;DHT22;11128;51.096;17.190;2024-01-11T11:24:44;-1.30;1.00
21928;DHT22;11128;51.096;17.190;2024-01-11T11:29:47;-1.20;1.00
21928;DHT22;11128;51.096;17.190;2024-01-11T11:34:51;-1.10;1.00
21928;DHT22;11128;51.096;17.190;2024-01-11T11:39:54;-1.00;1.00
21928;DHT22;11128;51.096;17.190;2024-01-11T11:44:56;-0.90;1.00
21928;DHT22;11128;51.096;17.190;2024-01-11T11:50:08;-0.90;1.00
21928;DHT22;11128;51.096;17.190;2024-01-11T11:55:13;-0.90;1.00
21928;DHT22;11128;51.096;17.190;2024-01-11T12:00:15;-1.00;1.00
21928;DHT22;11128;51.096;17.190;2024-01-11T12:05:17;-1.00;1.00
21928;DHT22;11128;51.096;17.190;2024-01-11T12:10:21;-1.00;1.00
21928;DHT22;11128;51.096;17.190;2024-01-11T12:15:27;-0.80;1.00
21928;DHT22;11128;51.096;17.190;2024-01-11T12:20:29;-1.00;1.00
21928;DHT22;11128;51.096;17.190;2024-01-11T12:25:30;-0.90;1.00
21928;DHT22;11128;51.096;17.190;2024-01-11T12:30:32;-0.90;1.00
21928;DHT22;11128;51.096;17.190;2024-01-11T12:35:33;-0.90;1.00
21928;DHT22;11128;51.096;17.190;2024-01-11T12:40:36;0.10;1.00
21928;DHT22;11128;51.096;17.190;2024-01-11T12:45:41;-0.90;1.00
21928;DHT22;11128;51.096;17.190;2024-01-11T12:50:43;-0.90;1.00
21928;DHT22;11128;51.096;17.190;2024-01-11T12:55:45;-0.80;1.00
21928;DHT22;11128;51.096;17.190;2024-01-11T13:00:46;-0.70;1.00
21928;DHT22;11128;51.096;17.190;2024-01-11T13:05:48;-0.60;1.00
21928;DHT22;11128;51.096;17.190;2024-01-11T13:10:49;-0.60;1.00
21928;DHT22;11128;51.096;17.190;2024-01-11T13:15:50;-0.60;1.00
21928;DHT22;11128;51.096;17.190;2024-01-11T13:20:52;-0.30;1.00
21928;DHT22;11128;51.096;17.190;2024-01-11T13:25:53;1.20;1.00
21928;DHT22;11128;51.096;17.190;2024-01-11T13:30:54;0.20;1.00
21928;DHT22;11128;51.096;17.190;2024-01-11T13:35:56;0.20;1.00
21928;DHT22;11128;51.096;17.190;2024-01-11T13:40:57;0.10;1.00
21928;DHT22;11128;51.096;17.190;2024-01-11T13:45:58;0.70;1.00
21928;DHT22;11128;51.096;17.190;2024-01-11T13:50:59;-0.30;1.00
21928;DHT22;11128;51.096;17.190;2024-01-11T13:56:01;-0.40;1.00
21928;DHT22;11128;51.096;17.190;2024-01-11T14:01:02;-0.50;29.30
21928;DHT22;11128;51.096;17.190;2024-01-11T14:06:04;-0.60;91.40
21928;DHT22;11128;51.096;17.190;2024-01-11T14:11:05;-0.70;99.90
21928;DHT22;11128;51.096;17.190;2024-01-11T14:16:06;-0.90;99.90
21928;DHT22;11128;51.096;17.190;2024-01-11T14:21:07;-1.00;99.90
21928;DHT22;11128;51.096;17.190;2024-01-11T14:26:12;-1.10;99.90
21928;DHT22;11128;51.096;17.190;2024-01-11T14:31:14;-1.10;99.90
21928;DHT22;11128;51.096;17.190;2024-01-11T14:36:16;-1.20;99.90
21928;DHT22;11128;51.096;17.190;2024-01-11T14:41:17;-0.80;99.90
21928;DHT22;11128;51.096;17.190;2024-01-11T14:46:19;-1.30;99.90
21928;DHT22;11128;51.096;17.190;2024-01-11T14:51:20;0.00;99.90
21928;DHT22;11128;51.096;17.190;2024-01-11T14:56:22;-1.50;1.00
21928;DHT22;11128;51.096;17.190;2024-01-11T15:01:23;-1.50;1.00
21928;DHT22;11128;51.096;17.190;2024-01-11T15:06:24;-1.60;1.00
21928;DHT22;11128;51.096;17.190;2024-01-11T15:11:25;-1.60;1.00
21928;DHT22;11128;51.096;17.190;2024-01-11T15:16:29;-1.60;1.00
21928;DHT22;11128;51.096;17.190;2024-01-11T15:21:30;-1.70;1.00
21928;DHT22;11128;51.096;17.190;2024-01-11T15:26:32;-1.70;99.90
21928;DHT22;11128;51.096;17.190;2024-01-11T15:31:33;-1.70;1.00
21928;DHT22;11128;51.096;17.190;2024-01-11T15:36:39;-1.70;1.00
21928;DHT22;11128;51.096;17.190;2024-01-11T15:41:41;-1.80;99.90
21928;DHT22;11128;51.096;17.190;2024-01-11T15:46:42;-1.80;99.90
21928;DHT22;11128;51.096;17.190;2024-01-11T15:51:44;-1.80;1.00
21928;DHT22;11128;51.096;17.190;2024-01-11T15:56:45;-1.90;1.00
21928;DHT22;11128;51.096;17.190;2024-01-11T16:01:47;-1.90;99.90
21928;DHT22;11128;51.096;17.190;2024-01-11T16:06:48;-2.00;1.00
21928;DHT22;11128;51.096;17.190;2024-01-11T16:11:49;-2.00;99.90
21928;DHT22;11128;51.096;17.190;2024-01-11T16:16:51;-2.10;1.00
21928;DHT22;11128;51.096;17.190;2024-01-11T16:21:53;-2.10;1.00
21928;DHT22;11128;51.096;17.190;2024-01-11T16:26:54;-2.10;99.90
21928;DHT22;11128;51.096;17.190;2024-01-11T16:31:55;-2.10;99.90
21928;DHT22;11128;51.096;17.190;2024-01-11T16:36:57;-2.20;1.00
21928;DHT22;11128;51.096;17.190;2024-01-11T16:41:58;-2.10;99.90
21928;DHT22;11128;51.096;17.190;2024-01-11T16:47:00;-2.10;1.00
21928;DHT22;11128;51.096;17.190;2024-01-11T16:52:02;-2.10;1.00
21928;DHT22;11128;51.096;17.190;2024-01-11T16:57:05;-2.10;99.90
21928;DHT22;11128;51.096;17.190;2024-01-11T17:02:06;-2.10;50.50
21928;DHT22;11128;51.096;17.190;2024-01-11T17:07:09;-2.10;1.00
21928;DHT22;11128;51.096;17.190;2024-01-11T17:12:11;-2.10;1.00
21928;DHT22;11128;51.096;17.190;2024-01-11T17:17:12;-2.10;1.00
21928;DHT22;11128;51.096;17.190;2024-01-11T17:22:14;-2.10;1.00
21928;DHT22;11128;51.096;17.190;2024-01-11T17:27:15;-1.80;1.00
21928;DHT22;11128;51.096;17.190;2024-01-11T17:32:16;-2.00;1.00
21928;DHT22;11128;51.096;17.190;2024-01-11T17:37:18;-2.10;1.00
21928;DHT22;11128;51.096;17.190;2024-01-11T17:42:22;-2.10;1.00
21928;DHT22;11128;51.096;17.190;2024-01-11T17:47:24;-2.00;1.00
21928;DHT22;11128;51.096;17.190;2024-01-11T17:52:26;-2.00;1.00
21928;DHT22;11128;51.096;17.190;2024-01-11T17:57:29;-2.00;1.00
21928;DHT22;11128;51.096;17.190;2024-01-11T18:02:30;-1.90;1.00
21928;DHT22;11128;51.096;17.190;2024-01-11T18:07:32;-1.90;99.90
21928;DHT22;11128;51.096;17.190;2024-01-11T18:12:33;-2.00;99.90
21928;DHT22;11128;51.096;17.190;2024-01-11T18:17:34;-1.90;1.00
21928;DHT22;11128;51.096;17.190;2024-01-11T18:22:41;-1.90;1.00
21928;DHT22;11128;51.096;17.190;2024-01-11T18:27:42;-1.80;1.00
21928;DHT22;11128;51.096;17.190;2024-01-11T18:32:44;-1.80;11.40
21928;DHT22;11128;51.096;17.190;2024-01-11T18:37:47;-1.80;1.00
21928;DHT22;11128;51.096;17.190;2024-01-11T18:42:49;-1.80;1.00
21928;DHT22;11128;51.096;17.190;2024-01-11T18:47:50;-1.80;1.00
21928;DHT22;11128;51.096;17.190;2024-01-11T18:52:51;-1.80;99.90
21928;DHT22;11128;51.096;17.190;2024-01-11T18:57:53;-1.70;1.00
21928;DHT22;11128;51.096;17.190;2024-01-11T19:02:55;-1.80;1.00
21928;DHT22;11128;51.096;17.190;2024-01-11T19:07:57;-1.70;99.90
21928;DHT22;11128;51.096;17.190;2024-01-11T19:13:00;-1.70;99.90
21928;DHT22;11128;51.096;17.190;2024-01-11T19:18:01;-1.70;1.00
21928;DHT22;11128;51.096;17.190;2024-01-11T19:23:03;-1.80;1.00
21928;DHT22;11128;51.096;17.190;2024-01-11T19:28:05;-1.70;1.00
21928;DHT22;11128;51.096;17.190;2024-01-11T19:33:06;-1.70;1.00
21928;DHT22;11128;51.096;17.190;2024-01-11T19:38:13;-1.80;1.00
21928;DHT22;11128;51.096;17.190;2024-01-11T19:43:14;-1.30;1.00
21928;DHT22;11128;51.096;17.190;2024-01-11T19:48:16;-1.70;22.80
21928;DHT22;11128;51.096;17.190;2024-01-11T19:53:18;-1.80;1.00
21928;DHT22;11128;51.096;17.190;2024-01-11T19:58:20;-1.80;1.00
21928;DHT22;11128;51.096;17.190;2024-01-11T20:03:21;-1.80;99.90
21928;DHT22;11128;51.096;17.190;2024-01-11T20:08:23;-1.80;99.90
21928;DHT22;11128;51.096;17.190;2024-01-11T20:13:25;-1.90;1.00
21928;DHT22;11128;51.096;17.190;2024-01-11T20:18:28;-1.80;1.00
21928;DHT22;11128;51.096;17.190;2024-01-11T20:23:29;-1.90;1.00
21928;DHT22;11128;51.096;17.190;2024-01-11T20:28:31;-1.90;1.00
21928;DHT22;11128;51.096;17.190;2024-01-11T20:33:32;-1.90;1.00
21928;DHT22;11128;51.096;17.190;2024-01-11T20:38:33;-1.90;1.00
21928;DHT22;11128;51.096;17.190;2024-01-11T20:43:35;-1.90;1.00
21928;DHT22;11128;51.096;17.190;2024-01-11T20:48:37;-1.10;1.00
21928;DHT22;11128;51.096;17.190;2024-01-11T20:53:40;-1.70;1.00
21928;DHT22;11128;51.096;17.190;2024-01-11T20:58:44;-0.60;1.00
21928;DHT22;11128;51.096;17.190;2024-01-11T21:03:45;-1.40;1.00
21928;DHT22;11128;51.096;17.190;2024-01-11T21:08:47;-1.90;1.00
21928;DHT22;11128;51.096;17.190;2024-01-11T21:13:49;-1.90;1.00
21928;DHT22;11128;51.096;17.190;2024-01-11T21:18:50;-0.50;1.00
21928;DHT22;11128;51.096;17.190;2024-01-11T21:23:54;-1.80;1.00
21928;DHT22;11128;51.096;17.190;2024-01-11T21:29:01;-1.80;99.90
21928;DHT22;11128;51.096;17.190;2024-01-11T21:34:07;-1.40;99.90
21928;DHT22;11128;51.096;17.190;2024-01-11T21:39:09;-1.80;99.90
21928;DHT22;11128;51.096;17.190;2024-01-11T21:44:10;-1.80;1.00
21928;DHT22;11128;51.096;17.190;2024-01-11T21:49:11;-1.80;99.90
21928;DHT22;11128;51.096;17.190;2024-01-11T21:54:18;-1.80;99.90
21928;DHT22;11128;51.096;17.190;2024-01-11T21:59:20;-1.40;99.90
21928;DHT22;11128;51.096;17.190;2024-01-11T22:04:21;-1.80;1.00
21928;DHT22;11128;51.096;17.190;2024-01-11T22:09:23;-1.00;1.00
21928;DHT22;11128;51.096;17.190;2024-01-11T22:14:24;-1.80;99.90
21928;DHT22;11128;51.096;17.190;2024-01-11T22:19:26;-1.80;1.00
21928;DHT22;11128;51.096;17.190;2024-01-11T22:24:27;-1.80;1.00
21928;DHT22;11128;51.096;17.190;2024-01-11T22:29:28;-1.80;1.00
21928;DHT22;11128;51.096;17.190;2024-01-11T22:34:29;-1.80;1.00
21928;DHT22;11128;51.096;17.190;2024-01-11T22:39:30;-1.80;1.00
21928;DHT22;11128;51.096;17.190;2024-01-11T22:44:32;-1.80;1.00
21928;DHT22;11128;51.096;17.190;2024-01-11T22:49:33;-1.10;1.00
21928;DHT22;11128;51.096;17.190;2024-01-11T22:54:34;-0.30;1.00
21928;DHT22;11128;51.096;17.190;2024-01-11T22:59:36;-0.60;1.00
21928;DHT22;11128;51.096;17.190;2024-01-11T23:04:38;-1.70;1.00
21928;DHT22;11128;51.096;17.190;2024-01-11T23:09:39;-1.70;1.00
21928;DHT22;11128;51.096;17.190;2024-01-11T23:14:41;-1.70;1.00
21928;DHT22;11128;51.096;17.190;2024-01-11T23:19:42;-0.80;1.00
21928;DHT22;11128;51.096;17.190;2024-01-11T23:24:43;-1.70;1.00
21928;DHT22;11128;51.096;17.190;2024-01-11T23:29:45;-1.70;99.90
21928;DHT22;11128;51.096;17.190;2024-01-11T23:34:46;-1.70;99.90
21928;DHT22;11128;51.096;17.190;2024-01-11T23:39:47;-0.50;1.00
21928;DHT22;11128;51.096;17.190;2024-01-11T23:44:49;-1.70;1.00
21928;DHT22;11128;51.096;17.190;2024-01-11T23:49:50;-1.70;99.90
21928;DHT22;11128;51.096;17.190;2024-01-11T23:54:52;-1.70;1.00
21928;DHT22;11128;51.096;17.190;2024-01-11T23:59:53;-1.60;1.00
